createdAt,value
2018-11-03T00:06:05.777Z,101440.26
2018-11-03T00:16:08.537Z,101437.23
2018-11-03T00:26:10.975Z,101435.14
2018-11-03T00:36:13.535Z,101446.53
2018-11-03T00:46:16.012Z,101442.28
2018-11-03T00:56:18.857Z,101441.46
2018-11-03T01:06:23.918Z,101430.23
2018-11-03T01:16:27.030Z,101429.22
2018-11-03T01:26:29.673Z,101445.50
2018-11-03T01:36:33.241Z,101430.32
2018-11-03T01:46:35.686Z,101425.11
2018-11-03T01:56:38.890Z,101422.04
2018-11-03T02:06:41.341Z,101422.17
2018-11-03T02:16:44.575Z,101424.84
2018-11-03T02:26:48.027Z,101428.42
2018-11-03T02:36:50.481Z,101422.67
2018-11-03T02:46:52.873Z,101432.02
2018-11-03T02:56:56.945Z,101436.92
2018-11-03T03:06:59.874Z,101449.16
2018-11-03T03:17:03.442Z,101450.17
2018-11-03T03:27:06.292Z,101465.88
2018-11-03T03:37:08.692Z,101469.55
2018-11-03T03:47:12.048Z,101484.47
2018-11-03T03:57:14.474Z,101492.44
2018-11-03T04:07:17.034Z,101500.77
2018-11-03T04:17:21.151Z,101503.84
2018-11-03T04:27:26.108Z,101507.91
2018-11-03T04:37:29.220Z,101514.66
2018-11-03T04:47:32.234Z,101517.95
2018-11-03T04:57:34.699Z,101530.41
2018-11-03T05:07:37.187Z,101544.44
2018-11-03T05:17:39.614Z,101548.37
2018-11-03T05:27:43.591Z,101562.89
2018-11-03T05:37:46.226Z,101575.16
2018-11-03T05:47:49.330Z,101584.02
2018-11-03T05:57:51.753Z,101564.76
2018-11-03T06:07:55.343Z,101565.56
2018-11-03T06:17:58.416Z,101567.39
2018-11-03T06:28:00.963Z,101573.97
2018-11-03T06:38:03.336Z,101587.20
2018-11-03T06:48:06.026Z,101589.83
2018-11-03T06:58:08.534Z,101599.07
2018-11-03T07:08:11.330Z,101606.09
2018-11-03T07:18:13.802Z,101620.08
2018-11-03T07:28:16.334Z,101625.98
2018-11-03T07:38:18.852Z,101612.36
2018-11-03T07:48:21.549Z,101614.78
2018-11-03T07:58:23.932Z,101606.89
2018-11-03T08:08:26.265Z,101594.39
2018-11-03T08:18:28.723Z,101617.14
2018-11-03T08:28:31.860Z,101621.92
2018-11-03T08:38:35.184Z,101622.64
2018-11-03T08:48:37.629Z,101619.83
2018-11-03T08:58:40.037Z,101626.64
2018-11-03T09:08:42.425Z,101609.52
2018-11-03T09:18:44.826Z,101615.88
2018-11-03T09:28:47.374Z,101617.34
2018-11-03T09:38:49.890Z,101617.64
2018-11-03T09:48:52.289Z,101610.58
2018-11-03T09:58:54.865Z,101622.42
2018-11-03T10:08:57.358Z,101606.84
2018-11-03T10:18:59.857Z,101599.69
2018-11-03T10:29:02.361Z,101590.54
2018-11-03T10:39:06.669Z,101579.61
2018-11-03T10:49:09.099Z,101581.71
2018-11-03T10:59:11.632Z,101571.81
2018-11-03T11:09:19.590Z,101573.72
2018-11-03T11:19:21.970Z,101569.17
2018-11-03T11:29:24.477Z,101568.40
2018-11-03T11:39:27.276Z,101561.17
2018-11-03T11:49:29.793Z,101549.13
2018-11-03T11:59:32.362Z,101542.73
2018-11-03T12:09:34.789Z,101535.61
2018-11-03T12:19:37.172Z,101533.39
2018-11-03T12:29:40.365Z,101520.45
2018-11-03T12:39:42.834Z,101509.27
2018-11-03T12:49:45.320Z,101510.58
2018-11-03T12:59:47.845Z,101498.07
2018-11-03T13:09:50.805Z,101493.98
2018-11-03T13:19:53.282Z,101499.23
2018-11-03T13:29:55.691Z,101506.80
2018-11-03T13:39:58.238Z,101503.84
2018-11-03T13:50:00.673Z,101517.87
2018-11-03T14:00:03.061Z,101512.70
2018-11-03T14:10:06.085Z,101503.18
2018-11-03T14:20:09.701Z,101495.80
2018-11-03T14:30:13.008Z,101489.21
2018-11-03T14:40:16.370Z,101487.47
2018-11-03T14:50:18.802Z,101491.02
2018-11-03T15:00:21.246Z,101500.55
2018-11-03T15:10:23.740Z,101486.14
2018-11-03T15:20:26.233Z,101481.20
2018-11-03T15:30:28.781Z,101489.21
2018-11-03T15:40:31.232Z,101486.86
2018-11-03T15:50:33.708Z,101495.06
2018-11-03T16:00:36.322Z,101499.02
2018-11-03T16:10:38.874Z,101499.03
2018-11-03T16:20:41.458Z,101491.02
2018-11-03T16:30:44.266Z,101490.34
2018-11-03T16:40:46.929Z,101488.47
2018-11-03T16:50:49.766Z,101487.56
2018-11-03T17:00:52.322Z,101481.74
2018-11-03T17:10:54.770Z,101469.93
2018-11-03T17:20:57.408Z,101466.28
2018-11-03T17:30:59.963Z,101458.46
2018-11-03T17:41:02.406Z,101453.62
2018-11-03T17:51:05.002Z,101443.47
2018-11-03T18:01:07.745Z,101436.82
2018-11-03T18:11:10.256Z,101432.09
2018-11-03T18:21:12.811Z,101426.12
2018-11-03T18:31:15.389Z,101423.72
2018-11-03T18:41:17.774Z,101410.20
2018-11-03T18:51:20.374Z,101399.86
2018-11-03T19:01:23.219Z,101401.49
2018-11-03T19:11:25.593Z,101395.08
2018-11-03T19:21:28.125Z,101396.09
2018-11-03T19:31:30.532Z,101387.99
2018-11-03T19:41:33.148Z,101386.31
2018-11-03T19:51:35.574Z,101378.41
2018-11-03T20:01:38.190Z,101380.70
2018-11-03T20:11:40.771Z,101373.37
2018-11-03T20:21:43.494Z,101363.79
2018-11-03T20:31:46.209Z,101354.34
2018-11-03T20:41:48.807Z,101345.81
2018-11-03T20:51:51.172Z,101334.55
2018-11-03T21:01:53.827Z,101333.07
2018-11-03T21:11:56.219Z,101324.33
2018-11-03T21:22:00.316Z,101315.11
2018-11-03T21:32:02.922Z,101307.91
2018-11-03T21:42:05.465Z,101292.43
2018-11-03T21:52:07.937Z,101277.59
2018-11-03T22:02:10.451Z,101270.95
2018-11-03T22:12:12.945Z,101252.67
2018-11-03T22:22:15.343Z,101245.97
2018-11-03T22:32:18.524Z,101227.80
2018-11-03T22:42:21.217Z,101217.03
2018-11-03T22:52:23.972Z,101210.28
2018-11-03T23:02:27.924Z,101199.04
2018-11-03T23:12:31.157Z,101192.00
2018-11-03T23:22:33.977Z,101179.75
2018-11-03T23:32:36.713Z,101173.84
2018-11-03T23:42:39.903Z,101153.98
2018-11-03T23:52:45.466Z,101144.92
